Portada
METAR-TAF:

METAR-TAF

Aeroports :

Jackson, Tennessee, Estats Units d'Amèrica

latitud: 35-35-35N, longitud: 088-55-00W, altitud: 132 m

Observació

L'informe es va fer fa 53 minuts, a les 13:53 UTC
Vent 4 kt del Sud
Temperatura -7°C
Humitat 73%
Pressió 1029 hPa
Visibilitat: 16.1 km
Cel clar

METAR: KMKL 131353Z 19004KT 10SM CLR M07/M11 A3040 RMK AO2 SLP302 T10721111

Hora: 08:46 (14:46 UTC)

Pronòstic

L'informe es va fer fa 3 hores i 26 minuts, a les 11:20 UTC
Pronòstic vàlid del 13 a les 12 UTC al 14 a les 12 UTC
Vent 4 kt del Est
Visibilitat: 10 km
Cel clar
A partir de les 13 a les 1700 UTC
Vent 7 kt del Sud/Sud-Est
Visibilitat: 10 km
Escasses núvols a una alçada de 25000 ft
A partir de les 14 a les 0100 UTC
Vent 2 kt del Sud
Visibilitat: 10 km
Núvols disperses a una alçada de 25000 ft

TAF: KMKL 131120Z 1312/1412 08004KT P6SM SKC FM131700 16007KT P6SM FEW250 FM140100 17002KT P6SM SCT250

Observacions i pronòstics meteorològics de més de 4000 aeroports (METAR i TAF).

Les estacions disponibles són els punts grocs i vermells al mapa.

Posi el ratolí al punt desitjat per veure el nom de l'estació.

Feu clic per veure les observacions i els pronòstics meteorològics.

Per canviar el mapa: feu clic els botons verds amb una creu de color negre per apropar; al botó verd amb un guió per allunyar la imatge; o en les fletxes verdes per a mapes adjacents.


METAR-TAF: